CheckWX is a tool to help pilots better visualize weather data.  It is not intended as a substitute for an official pre-flight weather briefing.

18:39:43 UTC

KAXN METAR
Chandler Field Airport
Alexandria, Minnesota, USA
Current

47 mins ago

KAXN 261753Z AUTO 19012KT 10SM OVC045 05/M03 A3027 RMK AO2 SLP269 6//// T00501028 10050 21028 58016
Observed
Mar-26 @ 17:53 UTC
Wind
  • 190° at 12 KTS
Visibility
10 SM
Flight Rules
VFR
Cloud Levels
  • Overcast at 4,500' AGL
Temperature
C / 41°F
Dewpoint
-3°C / 27°F
Humidity
57%
Altimeter
30.27" Hg
Pressure
1026.9 hPa
Previous

2 hours ago

KAXN 261653Z AUTO 19012KT 10SM BKN041 OVC049 04/M04 A3031 RMK AO2 SLP280 T00391039
Observed
Mar-26 @ 16:53 UTC
Wind
  • 190° at 12 KTS
Visibility
10 SM
Flight Rules
VFR
Cloud Levels
  • Broken at 4,100' AGL
  • Overcast at 4,900' AGL
Temperature
C / 39°F
Dewpoint
-4°C / 25°F
Humidity
56%
Altimeter
30.31" Hg
Pressure
1028 hPa
Previous

3 hours ago

KAXN 261553Z AUTO 18009KT OVC046 A3032 RMK AO2 SLPNO $
Observed
Mar-26 @ 15:53 UTC
Wind
  • 180° at 9 KTS
Visibility
Cloud Levels
  • Overcast at 4,600' AGL
Altimeter
30.32" Hg
Pressure
1026.72 hPa